Time;durP1;ratioP1;P1;durP2;ratioP2;P2;SDS_P1;SDS_P2;PMS_P1;PMS_P2;Temp;Humidity;BMP_temperature;BMP_pressure;BME280_temperature;BME280_humidity;BME280_pressure;Samples;Min_cycle;Max_cycle;Signal;HPM_P1;HPM_P2
2022/06/18 00:02:52;;;;;;;6.85;1.73;;;22.50;99.90;;;;;;20791661;28;20044;-39
2022/06/18 00:23:15;;;;;;;3.08;1.48;;;22.20;99.90;;;;;;20777121;28;20052;-39
2022/06/18 00:33:17;;;;;;;2.63;1.48;;;22.20;99.90;;;;;;20757965;28;20044;-39
2022/06/18 00:43:30;;;;;;;2.50;1.80;;;22.10;99.90;;;;;;20778302;28;21544;-39
2022/06/18 00:53:42;;;;;;;2.85;1.38;;;22.00;99.90;;;;;;20784926;28;20049;-39
2022/06/18 01:03:45;;;;;;;2.70;1.45;;;21.80;99.90;;;;;;20784792;28;20715;-39
2022/06/18 01:13:46;;;;;;;1.70;1.15;;;21.60;99.90;;;;;;20779006;28;20519;-39
2022/06/18 01:23:52;;;;;;;4.25;1.10;;;21.50;99.90;;;;;;20790276;28;20045;-39
2022/06/18 01:33:53;;;;;;;2.22;1.33;;;21.40;99.90;;;;;;20779661;28;20056;-39
2022/06/18 01:43:57;;;;;;;2.75;1.45;;;21.30;99.90;;;;;;20786156;28;20237;-39
2022/06/18 01:54:04;;;;;;;2.85;1.17;;;21.00;99.90;;;;;;20785601;28;20050;-39
2022/06/18 02:04:06;;;;;;;2.72;1.58;;;20.80;99.90;;;;;;20799347;28;20076;-39
2022/06/18 02:14:11;;;;;;;2.60;1.30;;;20.60;99.90;;;;;;20783095;28;20041;-39
2022/06/18 02:24:16;;;;;;;2.90;1.30;;;20.40;99.90;;;;;;20789236;28;21010;-39
2022/06/18 02:34:20;;;;;;;4.60;2.22;;;20.30;99.90;;;;;;20794177;28;20037;-39
2022/06/18 02:44:21;;;;;;;2.45;1.20;;;20.30;99.90;;;;;;20806119;28;20482;-39
2022/06/18 02:54:24;;;;;;;4.35;1.38;;;20.30;99.90;;;;;;20808356;28;20057;-39
2022/06/18 03:04:25;;;;;;;2.80;1.65;;;20.40;99.90;;;;;;20793312;28;20049;-39
2022/06/18 03:14:26;;;;;;;3.78;1.75;;;20.40;99.90;;;;;;20790839;28;20046;-39
2022/06/18 03:24:27;;;;;;;4.03;2.38;;;20.20;99.90;;;;;;20772193;28;20048;-39
2022/06/18 03:34:28;;;;;;;3.83;1.73;;;20.10;99.90;;;;;;20787742;28;20041;-39
2022/06/18 03:44:31;;;;;;;11.32;2.92;;;19.90;99.90;;;;;;20716390;28;20057;-39
2022/06/18 03:54:33;;;;;;;4.15;2.00;;;19.80;99.90;;;;;;20749425;28;20029;-39
2022/06/18 04:04:39;;;;;;;3.23;1.67;;;19.70;99.90;;;;;;20723688;28;20056;-39
2022/06/18 04:14:40;;;;;;;4.47;2.00;;;19.60;99.90;;;;;;20779495;28;21309;-39
2022/06/18 04:24:42;;;;;;;5.25;2.05;;;19.60;99.90;;;;;;20778282;28;20067;-39
2022/06/18 04:34:43;;;;;;;4.57;2.00;;;19.60;99.90;;;;;;20778720;28;20501;-39
2022/06/18 04:44:44;;;;;;;5.05;2.58;;;19.50;99.90;;;;;;20776228;28;20417;-39
2022/06/18 04:54:46;;;;;;;6.78;3.53;;;19.60;99.90;;;;;;20777724;28;20033;-39
2022/06/18 05:04:47;;;;;;;5.00;2.17;;;19.60;99.90;;;;;;20775791;28;20199;-40
2022/06/18 05:14:48;;;;;;;5.38;2.30;;;19.60;99.90;;;;;;20782648;28;20660;-38
2022/06/18 05:24:49;;;;;;;4.68;2.60;;;19.60;99.90;;;;;;20779875;28;20060;-38
2022/06/18 05:34:51;;;;;;;3.90;2.05;;;19.60;99.90;;;;;;20794014;28;20049;-38
2022/06/18 05:44:54;;;;;;;4.97;2.85;;;19.80;99.90;;;;;;20802795;28;20425;-38
2022/06/18 05:54:55;;;;;;;6.10;2.25;;;20.00;99.90;;;;;;20799387;28;20044;-38
2022/06/18 06:04:56;;;;;;;4.88;2.90;;;20.10;99.90;;;;;;20789653;28;20539;-38
2022/06/18 06:15:00;;;;;;;5.32;2.33;;;20.20;99.90;;;;;;20790085;28;20249;-38
2022/06/18 06:25:01;;;;;;;10.02;2.90;;;20.30;99.90;;;;;;20786788;28;20045;-38
2022/06/18 06:35:02;;;;;;;7.13;3.25;;;20.40;99.90;;;;;;20790822;28;22232;-38
2022/06/18 06:45:04;;;;;;;6.45;2.50;;;20.40;99.90;;;;;;20782882;28;20276;-38
2022/06/18 07:05:47;;;;;;;6.32;2.53;;;20.80;99.90;;;;;;20784263;28;21474;-38
2022/06/18 07:15:50;;;;;;;4.70;2.13;;;20.90;99.90;;;;;;20762885;28;20048;-38
2022/06/18 07:25:51;;;;;;;7.93;2.85;;;21.20;99.90;;;;;;20779018;28;20085;-38
2022/06/18 07:35:54;;;;;;;3.72;2.38;;;21.50;99.90;;;;;;20696162;28;20034;-38
2022/06/18 07:45:55;;;;;;;3.90;2.15;;;21.70;99.90;;;;;;20803891;28;20515;-38
2022/06/18 07:55:56;;;;;;;10.35;2.80;;;21.70;99.90;;;;;;20788132;28;20033;-38
2022/06/18 08:05:58;;;;;;;3.30;2.20;;;21.90;99.90;;;;;;20803656;28;20049;-40
2022/06/18 08:15:59;;;;;;;10.18;2.17;;;22.00;99.90;;;;;;20762854;28;20050;-38
2022/06/18 08:26:01;;;;;;;3.53;1.90;;;22.10;99.90;;;;;;20784071;28;20051;-38
2022/06/18 08:36:06;;;;;;;3.42;1.50;;;22.30;99.90;;;;;;20795434;28;21566;-39
2022/06/18 08:46:22;;;;;;;3.65;1.40;;;22.50;99.90;;;;;;20788654;28;20048;-39
2022/06/18 08:56:48;;;;;;;5.05;1.98;;;22.60;99.90;;;;;;20778293;28;20033;-39
2022/06/18 09:07:07;;;;;;;4.40;2.22;;;22.90;99.90;;;;;;20781856;28;20415;-39
2022/06/18 09:17:17;;;;;;;3.75;1.20;;;23.10;99.90;;;;;;20786303;28;20400;-39
2022/06/18 09:27:24;;;;;;;4.05;1.38;;;23.20;99.90;;;;;;20773610;28;20712;-39
2022/06/18 09:37:37;;;;;;;5.28;1.55;;;23.50;99.90;;;;;;20783216;28;20609;-39
2022/06/18 09:47:44;;;;;;;2.53;1.15;;;23.70;99.90;;;;;;20792654;28;20053;-39
2022/06/18 09:57:50;;;;;;;2.73;1.47;;;23.80;99.90;;;;;;20788079;28;20042;-39
2022/06/18 10:07:52;;;;;;;2.33;1.20;;;24.10;99.90;;;;;;20781036;28;20128;-39
2022/06/18 10:18:05;;;;;;;1.88;0.90;;;24.30;99.90;;;;;;20796806;28;20060;-39
2022/06/18 10:28:38;;;;;;;2.67;1.30;;;24.30;99.90;;;;;;20806091;28;20044;-39
2022/06/18 10:39:00;;;;;;;1.77;0.68;;;24.40;99.90;;;;;;20810648;28;21607;-39
2022/06/18 10:49:04;;;;;;;2.85;0.88;;;24.40;99.90;;;;;;20785385;28;20342;-39
2022/06/18 10:59:05;;;;;;;2.00;0.75;;;24.70;99.90;;;;;;20797160;28;20226;-39
2022/06/18 11:09:19;;;;;;;1.05;0.45;;;24.70;99.90;;;;;;20798241;28;20041;-39
2022/06/18 11:19:34;;;;;;;1.90;0.60;;;24.90;99.90;;;;;;20781390;28;20290;-39
2022/06/18 11:29:40;;;;;;;0.82;0.50;;;25.10;99.90;;;;;;20781416;28;20348;-39
2022/06/18 11:39:41;;;;;;;8.25;1.90;;;25.00;99.90;;;;;;20806753;28;22425;-39
2022/06/18 11:50:07;;;;;;;1.10;0.50;;;25.10;99.90;;;;;;20802711;28;20040;-39
2022/06/18 12:00:22;;;;;;;1.20;0.57;;;25.30;99.90;;;;;;20797814;28;21655;-39
2022/06/18 12:10:45;;;;;;;1.10;0.70;;;25.50;99.90;;;;;;20788350;28;20045;-39
2022/06/18 12:21:13;;;;;;;2.50;1.13;;;25.70;99.90;;;;;;20806471;28;20678;-39
2022/06/18 12:31:24;;;;;;;3.33;0.50;;;25.40;99.90;;;;;;20797324;28;20052;-39
2022/06/18 12:41:51;;;;;;;1.52;0.55;;;25.50;99.90;;;;;;20808236;28;20538;-39
2022/06/18 12:52:27;;;;;;;0.68;0.25;;;25.60;99.90;;;;;;20799369;28;20499;-40
2022/06/18 13:03:00;;;;;;;2.58;0.50;;;25.50;99.90;;;;;;20822607;28;20463;-41
2022/06/18 13:13:26;;;;;;;1.80;0.40;;;25.30;99.90;;;;;;20804164;28;20346;-40
2022/06/18 13:34:14;;;;;;;0.90;0.30;;;25.70;99.90;;;;;;20800787;28;20710;-40
2022/06/18 13:44:28;;;;;;;1.73;0.43;;;25.60;99.90;;;;;;20764956;28;20053;-40
2022/06/18 13:54:58;;;;;;;4.18;0.40;;;25.50;99.90;;;;;;20799599;28;20048;-40
2022/06/18 14:05:10;;;;;;;3.22;0.75;;;25.40;99.90;;;;;;20784664;28;21575;-40
2022/06/18 14:15:17;;;;;;;1.08;0.80;;;25.20;99.90;;;;;;20798979;28;20045;-40
2022/06/18 14:25:18;;;;;;;;;;;25.00;99.90;;;;;;20803828;28;20055;-40
2022/06/18 14:35:50;;;;;;;1.17;0.30;;;25.00;99.90;;;;;;20817007;28;21002;-40
2022/06/18 14:46:20;;;;;;;0.93;0.30;;;24.90;99.90;;;;;;20814541;28;20501;-39
2022/06/18 14:56:50;;;;;;;1.50;0.50;;;24.90;99.90;;;;;;20816478;28;20292;-40
2022/06/18 15:06:52;;;;;;;1.13;0.38;;;24.90;99.90;;;;;;20783383;28;20056;-40
2022/06/18 15:17:26;;;;;;;0.68;0.20;;;24.50;99.90;;;;;;20792951;28;20041;-40
2022/06/18 15:27:30;;;;;;;0.65;0.25;;;24.30;99.90;;;;;;20802772;28;20484;-40
2022/06/18 15:37:31;;;;;;;0.70;0.30;;;24.00;99.90;;;;;;20798650;28;20053;-40
2022/06/18 15:47:32;;;;;;;0.95;0.40;;;23.90;99.90;;;;;;20804530;28;20052;-39
2022/06/18 15:57:36;;;;;;;1.10;0.38;;;23.80;99.90;;;;;;20803351;28;20049;-39
2022/06/18 16:07:59;;;;;;;1.25;0.73;;;23.80;99.90;;;;;;20785787;28;20457;-39
2022/06/18 16:18:02;;;;;;;1.02;0.32;;;23.70;99.90;;;;;;20761893;28;20052;-39
2022/06/18 16:28:06;;;;;;;1.63;0.50;;;23.30;99.90;;;;;;20786541;28;20052;-40
2022/06/18 16:38:33;;;;;;;1.50;0.88;;;23.10;99.90;;;;;;20796759;28;20221;-39
2022/06/18 16:48:37;;;;;;;1.57;0.30;;;22.80;99.90;;;;;;20784695;28;21557;-39
2022/06/18 16:58:39;;;;;;;1.38;0.63;;;22.70;99.90;;;;;;20757716;28;20045;-39
2022/06/18 17:08:42;;;;;;;3.55;1.20;;;22.60;99.90;;;;;;20798147;28;20424;-39
2022/06/18 17:18:43;;;;;;;1.83;0.75;;;22.40;99.90;;;;;;20783974;28;20040;-39
2022/06/18 17:39:09;;;;;;;1.23;0.57;;;21.90;99.90;;;;;;20812463;28;20088;-39
2022/06/18 17:49:11;;;;;;;1.10;0.60;;;21.70;99.90;;;;;;20794669;28;20379;-39
2022/06/18 17:59:17;;;;;;;2.58;0.73;;;21.50;99.90;;;;;;20809957;28;20044;-40
2022/06/18 18:09:18;;;;;;;1.48;0.50;;;21.30;99.90;;;;;;20796756;28;20048;-39
2022/06/18 18:19:22;;;;;;;3.42;1.02;;;21.10;99.90;;;;;;20792789;28;20053;-39
2022/06/18 18:29:23;;;;;;;2.00;0.47;;;21.00;99.90;;;;;;20794308;28;20064;-39
2022/06/18 18:39:25;;;;;;;8.85;1.05;;;20.70;99.90;;;;;;20774450;28;20061;-39
2022/06/18 18:49:27;;;;;;;1.98;0.85;;;20.60;99.90;;;;;;20765583;28;20041;-39
2022/06/18 18:59:28;;;;;;;6.20;0.98;;;20.60;99.90;;;;;;20773277;28;20049;-39
2022/06/18 19:09:30;;;;;;;4.22;1.23;;;20.70;99.90;;;;;;20773491;28;20041;-39
2022/06/18 19:19:32;;;;;;;2.85;0.68;;;20.70;99.90;;;;;;20771154;28;20096;-39
2022/06/18 19:29:33;;;;;;;1.25;0.52;;;20.60;99.90;;;;;;20775487;28;20052;-39
2022/06/18 19:39:37;;;;;;;2.90;1.10;;;20.40;99.90;;;;;;20799409;28;20056;-39
2022/06/18 19:49:38;;;;;;;4.05;0.90;;;20.20;99.90;;;;;;20778449;28;20366;-39
2022/06/18 19:59:39;;;;;;;2.58;0.70;;;19.90;99.90;;;;;;20787874;28;20054;-39
2022/06/18 20:09:40;;;;;;;2.03;0.77;;;19.80;99.90;;;;;;20799282;28;20551;-39
2022/06/18 20:19:49;;;;;;;5.47;0.65;;;19.60;99.90;;;;;;20871206;27;20614;-39
2022/06/18 20:29:50;;;;;;;4.38;0.88;;;19.50;99.90;;;;;;20854624;28;20033;-39
2022/06/18 20:39:51;;;;;;;2.13;0.60;;;19.30;99.90;;;;;;20864305;28;20025;-39
2022/06/18 20:49:52;;;;;;;1.67;0.77;;;19.10;99.90;;;;;;20873709;28;20030;-39
2022/06/18 20:59:57;;;;;;;1.45;0.63;;;19.00;99.90;;;;;;20871221;28;20492;-39
2022/06/18 21:09:58;;;;;;;4.15;0.70;;;18.80;99.90;;;;;;20871141;28;20033;-39
2022/06/18 21:20:00;;;;;;;1.77;0.55;;;18.70;99.90;;;;;;20868639;28;20039;-39
2022/06/18 21:30:02;;;;;;;4.78;2.22;;;18.60;99.90;;;;;;20811707;28;20029;-39
2022/06/18 21:40:03;;;;;;;1.33;0.50;;;18.40;99.90;;;;;;20791692;28;20043;-39
2022/06/18 21:50:05;;;;;;;2.10;0.50;;;18.20;99.90;;;;;;20787157;28;20029;-39
2022/06/18 22:00:12;;;;;;;3.97;1.35;;;18.00;99.90;;;;;;20865864;28;20048;-39
2022/06/18 22:10:14;;;;;;;6.37;2.27;;;18.00;99.90;;;;;;20858945;28;20049;-39
2022/06/18 22:20:16;;;;;;;0.90;0.40;;;17.90;99.90;;;;;;20873425;28;20994;-39
2022/06/18 22:30:17;;;;;;;3.13;0.45;;;17.80;99.90;;;;;;20877528;28;20594;-39
2022/06/18 22:40:18;;;;;;;4.20;0.80;;;17.70;99.90;;;;;;20862729;28;20029;-39
2022/06/18 22:50:24;;;;;;;4.75;0.60;;;17.50;99.90;;;;;;20879704;28;20033;-39
2022/06/18 23:00:25;;;;;;;1.10;0.38;;;17.50;99.90;;;;;;20867910;28;20032;-39
2022/06/18 23:10:26;;;;;;;1.02;0.50;;;17.40;99.90;;;;;;20881630;28;20341;-39
2022/06/18 23:20:27;;;;;;;1.00;0.30;;;17.20;99.90;;;;;;20868737;28;20431;-39
2022/06/18 23:30:31;;;;;;;2.05;0.38;;;17.20;99.90;;;;;;20865951;28;20439;-39
2022/06/18 23:40:36;;;;;;;1.55;0.50;;;17.00;99.90;;;;;;20886092;28;20078;-39
2022/06/18 23:50:38;;;;;;;3.05;0.45;;;17.00;99.90;;;;;;20869989;28;20106;-39
